sensor_id;sensor_type;location;lat;lon;timestamp;temperature;humidity
67820;DHT22;54618;52.018;5.576;2023-09-18T00:01:46;17.40;79.90
67820;DHT22;54618;52.018;5.576;2023-09-18T00:04:15;17.40;79.80
67820;DHT22;54618;52.018;5.576;2023-09-18T00:06:41;17.40;79.70
67820;DHT22;54618;52.018;5.576;2023-09-18T00:09:06;17.40;79.70
67820;DHT22;54618;52.018;5.576;2023-09-18T00:11:36;17.40;79.60
67820;DHT22;54618;52.018;5.576;2023-09-18T00:14:03;17.30;79.50
67820;DHT22;54618;52.018;5.576;2023-09-18T00:16:29;17.30;79.70
67820;DHT22;54618;52.018;5.576;2023-09-18T00:18:54;17.30;79.90
67820;DHT22;54618;52.018;5.576;2023-09-18T00:21:19;17.40;79.90
67820;DHT22;54618;52.018;5.576;2023-09-18T00:23:45;17.30;79.90
67820;DHT22;54618;52.018;5.576;2023-09-18T00:26:14;17.40;80.30
67820;DHT22;54618;52.018;5.576;2023-09-18T00:28:39;17.40;80.40
67820;DHT22;54618;52.018;5.576;2023-09-18T00:31:05;17.40;80.30
67820;DHT22;54618;52.018;5.576;2023-09-18T00:33:30;17.40;80.50
67820;DHT22;54618;52.018;5.576;2023-09-18T00:35:55;17.50;80.40
67820;DHT22;54618;52.018;5.576;2023-09-18T00:38:21;17.50;80.40
67820;DHT22;54618;52.018;5.576;2023-09-18T00:40:46;17.50;80.30
67820;DHT22;54618;52.018;5.576;2023-09-18T00:43:14;17.50;80.30
67820;DHT22;54618;52.018;5.576;2023-09-18T00:45:41;17.50;80.10
67820;DHT22;54618;52.018;5.576;2023-09-18T00:48:08;17.50;79.90
67820;DHT22;54618;52.018;5.576;2023-09-18T00:50:34;17.40;79.90
67820;DHT22;54618;52.018;5.576;2023-09-18T00:53:00;17.40;79.70
67820;DHT22;54618;52.018;5.576;2023-09-18T00:55:27;17.40;79.60
67820;DHT22;54618;52.018;5.576;2023-09-18T00:57:54;17.30;79.60
67820;DHT22;54618;52.018;5.576;2023-09-18T01:00:19;17.30;79.50
67820;DHT22;54618;52.018;5.576;2023-09-18T01:02:45;17.30;79.50
67820;DHT22;54618;52.018;5.576;2023-09-18T01:05:10;17.30;79.50
67820;DHT22;54618;52.018;5.576;2023-09-18T01:07:36;17.30;79.70
67820;DHT22;54618;52.018;5.576;2023-09-18T01:10:01;17.30;79.80
67820;DHT22;54618;52.018;5.576;2023-09-18T01:12:37;17.30;79.90
67820;DHT22;54618;52.018;5.576;2023-09-18T01:17:37;17.30;80.00
67820;DHT22;54618;52.018;5.576;2023-09-18T01:20:03;17.30;80.00
67820;DHT22;54618;52.018;5.576;2023-09-18T01:22:31;17.30;80.30
67820;DHT22;54618;52.018;5.576;2023-09-18T01:24:56;17.30;80.00
67820;DHT22;54618;52.018;5.576;2023-09-18T01:27:22;17.40;80.00
67820;DHT22;54618;52.018;5.576;2023-09-18T01:29:48;17.40;80.10
67820;DHT22;54618;52.018;5.576;2023-09-18T01:32:14;17.40;80.40
67820;DHT22;54618;52.018;5.576;2023-09-18T01:34:47;17.50;80.70
67820;DHT22;54618;52.018;5.576;2023-09-18T01:37:13;17.50;80.90
67820;DHT22;54618;52.018;5.576;2023-09-18T01:39:40;17.50;80.90
67820;DHT22;54618;52.018;5.576;2023-09-18T01:42:06;17.60;81.00
67820;DHT22;54618;52.018;5.576;2023-09-18T01:44:32;17.60;81.00
67820;DHT22;54618;52.018;5.576;2023-09-18T01:46:58;17.60;81.00
67820;DHT22;54618;52.018;5.576;2023-09-18T01:49:37;17.60;81.30
67820;DHT22;54618;52.018;5.576;2023-09-18T01:52:03;17.70;81.50
67820;DHT22;54618;52.018;5.576;2023-09-18T01:54:29;17.70;81.50
67820;DHT22;54618;52.018;5.576;2023-09-18T01:56:55;17.70;81.40
67820;DHT22;54618;52.018;5.576;2023-09-18T01:59:21;17.80;81.70
67820;DHT22;54618;52.018;5.576;2023-09-18T02:01:47;17.80;81.60
67820;DHT22;54618;52.018;5.576;2023-09-18T02:04:15;17.80;81.70
67820;DHT22;54618;52.018;5.576;2023-09-18T02:06:40;17.90;81.80
67820;DHT22;54618;52.018;5.576;2023-09-18T02:09:06;17.90;82.50
67820;DHT22;54618;52.018;5.576;2023-09-18T02:11:36;18.00;82.30
67820;DHT22;54618;52.018;5.576;2023-09-18T02:14:02;18.00;82.40
67820;DHT22;54618;52.018;5.576;2023-09-18T02:16:29;18.10;82.40
67820;DHT22;54618;52.018;5.576;2023-09-18T02:18:54;18.10;82.30
67820;DHT22;54618;52.018;5.576;2023-09-18T02:21:21;18.20;82.50
67820;DHT22;54618;52.018;5.576;2023-09-18T02:23:49;18.30;82.50
67820;DHT22;54618;52.018;5.576;2023-09-18T02:26:16;18.30;83.20
67820;DHT22;54618;52.018;5.576;2023-09-18T02:28:43;18.40;83.20
67820;DHT22;54618;52.018;5.576;2023-09-18T02:31:09;18.40;83.50
67820;DHT22;54618;52.018;5.576;2023-09-18T02:33:35;18.40;83.00
67820;DHT22;54618;52.018;5.576;2023-09-18T02:36:00;18.50;83.60
67820;DHT22;54618;52.018;5.576;2023-09-18T02:38:26;18.50;83.90
67820;DHT22;54618;52.018;5.576;2023-09-18T02:40:51;18.50;82.90
67820;DHT22;54618;52.018;5.576;2023-09-18T02:43:18;18.50;83.80
67820;DHT22;54618;52.018;5.576;2023-09-18T02:45:44;18.50;83.50
67820;DHT22;54618;52.018;5.576;2023-09-18T02:48:11;18.50;83.20
67820;DHT22;54618;52.018;5.576;2023-09-18T02:50:36;18.50;83.00
67820;DHT22;54618;52.018;5.576;2023-09-18T02:53:02;18.50;82.60
67820;DHT22;54618;52.018;5.576;2023-09-18T02:55:28;18.50;82.30
67820;DHT22;54618;52.018;5.576;2023-09-18T02:57:54;18.50;82.20
67820;DHT22;54618;52.018;5.576;2023-09-18T03:00:19;18.50;82.20
67820;DHT22;54618;52.018;5.576;2023-09-18T03:02:45;18.50;82.30
67820;DHT22;54618;52.018;5.576;2023-09-18T03:05:10;18.50;82.30
67820;DHT22;54618;52.018;5.576;2023-09-18T03:07:36;18.50;82.10
67820;DHT22;54618;52.018;5.576;2023-09-18T03:10:02;18.50;81.90
67820;DHT22;54618;52.018;5.576;2023-09-18T03:12:27;18.60;82.00
67820;DHT22;54618;52.018;5.576;2023-09-18T03:14:53;18.50;81.70
67820;DHT22;54618;52.018;5.576;2023-09-18T03:17:19;18.50;81.80
67820;DHT22;54618;52.018;5.576;2023-09-18T03:19:47;18.50;81.90
67820;DHT22;54618;52.018;5.576;2023-09-18T03:22:15;18.50;82.10
67820;DHT22;54618;52.018;5.576;2023-09-18T03:24:41;18.50;81.90
67820;DHT22;54618;52.018;5.576;2023-09-18T03:27:06;18.50;82.00
67820;DHT22;54618;52.018;5.576;2023-09-18T03:29:32;18.50;81.80
67820;DHT22;54618;52.018;5.576;2023-09-18T03:31:57;18.50;81.80
67820;DHT22;54618;52.018;5.576;2023-09-18T03:34:24;18.50;81.90
67820;DHT22;54618;52.018;5.576;2023-09-18T03:36:52;18.50;81.80
67820;DHT22;54618;52.018;5.576;2023-09-18T03:39:17;18.50;81.90
67820;DHT22;54618;52.018;5.576;2023-09-18T03:41:43;18.40;81.70
67820;DHT22;54618;52.018;5.576;2023-09-18T03:44:10;18.50;82.00
67820;DHT22;54618;52.018;5.576;2023-09-18T03:46:35;18.50;81.80
67820;DHT22;54618;52.018;5.576;2023-09-18T03:49:01;18.50;81.60
67820;DHT22;54618;52.018;5.576;2023-09-18T03:51:26;18.50;81.90
67820;DHT22;54618;52.018;5.576;2023-09-18T03:53:52;18.50;82.10
67820;DHT22;54618;52.018;5.576;2023-09-18T03:56:17;18.50;82.00
67820;DHT22;54618;52.018;5.576;2023-09-18T03:58:46;18.50;81.90
67820;DHT22;54618;52.018;5.576;2023-09-18T04:01:17;18.50;81.90
67820;DHT22;54618;52.018;5.576;2023-09-18T04:03:46;18.50;81.80
67820;DHT22;54618;52.018;5.576;2023-09-18T04:06:11;18.50;81.90
67820;DHT22;54618;52.018;5.576;2023-09-18T04:08:37;18.50;81.90
67820;DHT22;54618;52.018;5.576;2023-09-18T04:11:02;18.50;81.90
67820;DHT22;54618;52.018;5.576;2023-09-18T04:13:29;18.50;81.70
67820;DHT22;54618;52.018;5.576;2023-09-18T04:15:54;18.50;82.50
67820;DHT22;54618;52.018;5.576;2023-09-18T04:18:22;18.50;82.90
67820;DHT22;54618;52.018;5.576;2023-09-18T04:20:47;18.50;82.30
67820;DHT22;54618;52.018;5.576;2023-09-18T04:23:17;18.50;82.70
67820;DHT22;54618;52.018;5.576;2023-09-18T04:25:43;18.50;82.60
67820;DHT22;54618;52.018;5.576;2023-09-18T04:28:09;18.60;82.20
67820;DHT22;54618;52.018;5.576;2023-09-18T04:30:35;18.60;82.20
67820;DHT22;54618;52.018;5.576;2023-09-18T04:33:01;18.60;83.20
67820;DHT22;54618;52.018;5.576;2023-09-18T04:35:26;18.60;82.80
67820;DHT22;54618;52.018;5.576;2023-09-18T04:37:55;18.60;82.70
67820;DHT22;54618;52.018;5.576;2023-09-18T04:40:21;18.60;83.70
67820;DHT22;54618;52.018;5.576;2023-09-18T04:42:46;18.60;85.20
67820;DHT22;54618;52.018;5.576;2023-09-18T04:45:11;18.60;86.60
67820;DHT22;54618;52.018;5.576;2023-09-18T04:47:37;18.60;85.50
67820;DHT22;54618;52.018;5.576;2023-09-18T04:50:02;18.60;85.70
67820;DHT22;54618;52.018;5.576;2023-09-18T04:52:30;18.70;84.50
67820;DHT22;54618;52.018;5.576;2023-09-18T04:54:56;18.70;85.10
67820;DHT22;54618;52.018;5.576;2023-09-18T04:57:22;18.70;85.60
67820;DHT22;54618;52.018;5.576;2023-09-18T04:59:48;18.70;84.90
67820;DHT22;54618;52.018;5.576;2023-09-18T05:02:16;18.80;87.00
67820;DHT22;54618;52.018;5.576;2023-09-18T05:04:42;18.80;85.20
67820;DHT22;54618;52.018;5.576;2023-09-18T05:07:12;18.90;85.80
67820;DHT22;54618;52.018;5.576;2023-09-18T05:09:38;18.90;84.80
67820;DHT22;54618;52.018;5.576;2023-09-18T05:12:06;18.90;85.30
67820;DHT22;54618;52.018;5.576;2023-09-18T05:14:34;19.00;85.20
67820;DHT22;54618;52.018;5.576;2023-09-18T05:16:59;19.00;85.10
67820;DHT22;54618;52.018;5.576;2023-09-18T05:19:25;19.00;85.20
67820;DHT22;54618;52.018;5.576;2023-09-18T05:21:50;19.00;85.80
67820;DHT22;54618;52.018;5.576;2023-09-18T05:24:16;19.00;85.40
67820;DHT22;54618;52.018;5.576;2023-09-18T05:26:41;19.10;84.80
67820;DHT22;54618;52.018;5.576;2023-09-18T05:29:07;19.00;85.80
67820;DHT22;54618;52.018;5.576;2023-09-18T05:31:32;19.00;84.80
67820;DHT22;54618;52.018;5.576;2023-09-18T05:33:58;19.00;84.70
67820;DHT22;54618;52.018;5.576;2023-09-18T05:36:24;19.00;84.90
67820;DHT22;54618;52.018;5.576;2023-09-18T05:38:49;19.10;84.60
67820;DHT22;54618;52.018;5.576;2023-09-18T05:41:15;19.10;84.30
67820;DHT22;54618;52.018;5.576;2023-09-18T05:43:41;19.10;84.00
67820;DHT22;54618;52.018;5.576;2023-09-18T05:46:07;19.10;84.50
67820;DHT22;54618;52.018;5.576;2023-09-18T05:48:33;19.10;83.90
67820;DHT22;54618;52.018;5.576;2023-09-18T05:50:58;19.10;83.90
67820;DHT22;54618;52.018;5.576;2023-09-18T05:53:24;19.10;83.80
67820;DHT22;54618;52.018;5.576;2023-09-18T05:55:49;19.10;83.70
67820;DHT22;54618;52.018;5.576;2023-09-18T05:58:15;19.10;83.70
67820;DHT22;54618;52.018;5.576;2023-09-18T06:00:45;19.10;83.50
67820;DHT22;54618;52.018;5.576;2023-09-18T06:03:11;19.10;83.60
67820;DHT22;54618;52.018;5.576;2023-09-18T06:05:37;19.10;83.60
67820;DHT22;54618;52.018;5.576;2023-09-18T06:08:03;19.10;84.00
67820;DHT22;54618;52.018;5.576;2023-09-18T06:10:28;19.10;84.20
67820;DHT22;54618;52.018;5.576;2023-09-18T06:12:54;19.10;84.10
67820;DHT22;54618;52.018;5.576;2023-09-18T06:15:19;19.10;84.50
67820;DHT22;54618;52.018;5.576;2023-09-18T06:17:45;19.10;84.00
67820;DHT22;54618;52.018;5.576;2023-09-18T06:20:10;19.10;84.00
67820;DHT22;54618;52.018;5.576;2023-09-18T06:22:38;19.20;84.20
67820;DHT22;54618;52.018;5.576;2023-09-18T06:25:04;19.20;84.10
67820;DHT22;54618;52.018;5.576;2023-09-18T06:27:30;19.20;84.20
67820;DHT22;54618;52.018;5.576;2023-09-18T06:29:57;19.30;84.40
67820;DHT22;54618;52.018;5.576;2023-09-18T06:32:22;19.30;84.30
67820;DHT22;54618;52.018;5.576;2023-09-18T06:34:48;19.30;84.10
67820;DHT22;54618;52.018;5.576;2023-09-18T06:37:16;19.30;84.90
67820;DHT22;54618;52.018;5.576;2023-09-18T06:39:46;19.30;84.40
67820;DHT22;54618;52.018;5.576;2023-09-18T06:42:12;19.40;84.60
67820;DHT22;54618;52.018;5.576;2023-09-18T06:44:37;19.40;85.20
67820;DHT22;54618;52.018;5.576;2023-09-18T06:47:03;19.40;85.50
67820;DHT22;54618;52.018;5.576;2023-09-18T06:49:28;19.40;85.40
67820;DHT22;54618;52.018;5.576;2023-09-18T06:51:54;19.40;85.10
67820;DHT22;54618;52.018;5.576;2023-09-18T06:54:19;19.40;85.00
67820;DHT22;54618;52.018;5.576;2023-09-18T06:56:45;19.50;84.80
67820;DHT22;54618;52.018;5.576;2023-09-18T06:59:10;19.50;85.30
67820;DHT22;54618;52.018;5.576;2023-09-18T07:01:37;19.50;86.90
67820;DHT22;54618;52.018;5.576;2023-09-18T07:04:02;19.50;86.10
67820;DHT22;54618;52.018;5.576;2023-09-18T07:06:30;19.60;86.00
67820;DHT22;54618;52.018;5.576;2023-09-18T07:08:55;19.60;85.30
67820;DHT22;54618;52.018;5.576;2023-09-18T07:11:21;19.70;85.70
67820;DHT22;54618;52.018;5.576;2023-09-18T07:13:47;19.70;86.20
67820;DHT22;54618;52.018;5.576;2023-09-18T07:16:15;19.70;86.50
67820;DHT22;54618;52.018;5.576;2023-09-18T07:18:41;19.80;86.40
67820;DHT22;54618;52.018;5.576;2023-09-18T07:21:06;19.80;86.10
67820;DHT22;54618;52.018;5.576;2023-09-18T07:23:32;19.80;86.10
67820;DHT22;54618;52.018;5.576;2023-09-18T07:25:57;19.90;87.80
67820;DHT22;54618;52.018;5.576;2023-09-18T07:28:24;19.90;86.10
67820;DHT22;54618;52.018;5.576;2023-09-18T07:30:49;19.90;85.80
67820;DHT22;54618;52.018;5.576;2023-09-18T07:33:15;19.90;85.80
67820;DHT22;54618;52.018;5.576;2023-09-18T07:35:49;19.90;86.30
67820;DHT22;54618;52.018;5.576;2023-09-18T07:38:17;19.90;85.20
67820;DHT22;54618;52.018;5.576;2023-09-18T07:40:44;19.90;86.40
67820;DHT22;54618;52.018;5.576;2023-09-18T07:43:11;20.00;86.70
67820;DHT22;54618;52.018;5.576;2023-09-18T07:45:38;20.00;85.30
67820;DHT22;54618;52.018;5.576;2023-09-18T07:48:03;20.00;85.20
67820;DHT22;54618;52.018;5.576;2023-09-18T07:50:29;20.00;83.90
67820;DHT22;54618;52.018;5.576;2023-09-18T07:52:57;20.10;84.00
67820;DHT22;54618;52.018;5.576;2023-09-18T07:55:22;20.10;85.10
67820;DHT22;54618;52.018;5.576;2023-09-18T07:57:48;20.10;85.10
67820;DHT22;54618;52.018;5.576;2023-09-18T08:00:14;20.20;85.20
67820;DHT22;54618;52.018;5.576;2023-09-18T08:02:41;20.20;85.50
67820;DHT22;54618;52.018;5.576;2023-09-18T08:05:07;20.30;84.30
67820;DHT22;54618;52.018;5.576;2023-09-18T08:07:34;20.30;84.80
67820;DHT22;54618;52.018;5.576;2023-09-18T08:10:04;20.30;85.00
67820;DHT22;54618;52.018;5.576;2023-09-18T08:12:34;20.40;85.40
67820;DHT22;54618;52.018;5.576;2023-09-18T08:14:59;20.50;84.80
67820;DHT22;54618;52.018;5.576;2023-09-18T08:17:25;20.50;84.90
67820;DHT22;54618;52.018;5.576;2023-09-18T08:19:51;20.60;84.40
67820;DHT22;54618;52.018;5.576;2023-09-18T08:22:17;20.60;84.10
67820;DHT22;54618;52.018;5.576;2023-09-18T08:24:45;20.60;83.60
67820;DHT22;54618;52.018;5.576;2023-09-18T08:27:11;20.60;83.70
67820;DHT22;54618;52.018;5.576;2023-09-18T08:29:37;20.60;84.20
67820;DHT22;54618;52.018;5.576;2023-09-18T08:32:02;20.60;83.40
67820;DHT22;54618;52.018;5.576;2023-09-18T08:34:28;20.60;83.20
67820;DHT22;54618;52.018;5.576;2023-09-18T08:36:53;20.60;82.70
67820;DHT22;54618;52.018;5.576;2023-09-18T08:39:19;20.70;83.40
67820;DHT22;54618;52.018;5.576;2023-09-18T08:41:45;20.70;82.90
67820;DHT22;54618;52.018;5.576;2023-09-18T08:44:16;20.80;82.10
67820;DHT22;54618;52.018;5.576;2023-09-18T08:46:44;20.90;82.50
67820;DHT22;54618;52.018;5.576;2023-09-18T08:49:10;21.10;82.90
67820;DHT22;54618;52.018;5.576;2023-09-18T08:51:36;21.20;83.00
67820;DHT22;54618;52.018;5.576;2023-09-18T08:54:02;21.30;83.70
67820;DHT22;54618;52.018;5.576;2023-09-18T08:56:28;21.40;81.70
67820;DHT22;54618;52.018;5.576;2023-09-18T08:58:54;21.40;81.50
67820;DHT22;54618;52.018;5.576;2023-09-18T09:01:19;21.50;82.10
67820;DHT22;54618;52.018;5.576;2023-09-18T09:03:46;21.60;81.20
67820;DHT22;54618;52.018;5.576;2023-09-18T09:06:12;21.60;80.90
67820;DHT22;54618;52.018;5.576;2023-09-18T09:08:42;21.60;80.60
67820;DHT22;54618;52.018;5.576;2023-09-18T09:11:07;21.60;79.80
67820;DHT22;54618;52.018;5.576;2023-09-18T09:13:34;21.60;79.40
67820;DHT22;54618;52.018;5.576;2023-09-18T09:15:59;21.70;80.20
67820;DHT22;54618;52.018;5.576;2023-09-18T09:18:26;21.60;79.60
67820;DHT22;54618;52.018;5.576;2023-09-18T09:20:53;21.70;79.40
67820;DHT22;54618;52.018;5.576;2023-09-18T09:23:19;21.70;78.30
67820;DHT22;54618;52.018;5.576;2023-09-18T09:25:45;21.70;78.20
67820;DHT22;54618;52.018;5.576;2023-09-18T09:28:10;21.70;79.90
67820;DHT22;54618;52.018;5.576;2023-09-18T09:30:36;22.00;79.10
67820;DHT22;54618;52.018;5.576;2023-09-18T09:33:02;22.20;79.50
67820;DHT22;54618;52.018;5.576;2023-09-18T09:35:30;22.40;79.50
67820;DHT22;54618;52.018;5.576;2023-09-18T09:37:57;22.60;79.00
67820;DHT22;54618;52.018;5.576;2023-09-18T09:40:23;22.80;78.50
67820;DHT22;54618;52.018;5.576;2023-09-18T09:42:53;23.10;78.70
67820;DHT22;54618;52.018;5.576;2023-09-18T09:45:22;23.30;78.20
67820;DHT22;54618;52.018;5.576;2023-09-18T09:47:48;23.50;76.80
67820;DHT22;54618;52.018;5.576;2023-09-18T09:50:19;23.60;76.80
67820;DHT22;54618;52.018;5.576;2023-09-18T09:52:51;23.70;75.30
67820;DHT22;54618;52.018;5.576;2023-09-18T09:55:25;23.90;75.50
67820;DHT22;54618;52.018;5.576;2023-09-18T09:57:54;24.00;72.70
67820;DHT22;54618;52.018;5.576;2023-09-18T10:00:23;24.00;73.40
67820;DHT22;54618;52.018;5.576;2023-09-18T10:03:02;24.00;71.50
67820;DHT22;54618;52.018;5.576;2023-09-18T10:05:29;24.00;72.80
67820;DHT22;54618;52.018;5.576;2023-09-18T10:07:57;24.20;73.40
67820;DHT22;54618;52.018;5.576;2023-09-18T10:10:24;24.20;70.30
67820;DHT22;54618;52.018;5.576;2023-09-18T10:12:51;24.20;71.00
67820;DHT22;54618;52.018;5.576;2023-09-18T10:15:18;24.00;70.10
67820;DHT22;54618;52.018;5.576;2023-09-18T10:17:45;23.80;71.10
67820;DHT22;54618;52.018;5.576;2023-09-18T10:20:14;23.60;70.70
67820;DHT22;54618;52.018;5.576;2023-09-18T10:22:48;23.40;70.90
67820;DHT22;54618;52.018;5.576;2023-09-18T10:25:17;23.20;71.70
67820;DHT22;54618;52.018;5.576;2023-09-18T10:27:47;23.00;72.00
67820;DHT22;54618;52.018;5.576;2023-09-18T10:30:14;22.80;72.40
67820;DHT22;54618;52.018;5.576;2023-09-18T10:32:46;22.70;72.50
67820;DHT22;54618;52.018;5.576;2023-09-18T10:35:11;22.60;72.90
67820;DHT22;54618;52.018;5.576;2023-09-18T10:37:46;22.60;73.40
67820;DHT22;54618;52.018;5.576;2023-09-18T10:40:16;22.60;73.50
67820;DHT22;54618;52.018;5.576;2023-09-18T10:42:42;22.60;73.50
67820;DHT22;54618;52.018;5.576;2023-09-18T10:45:08;22.50;73.60
67820;DHT22;54618;52.018;5.576;2023-09-18T10:47:37;22.40;73.90
67820;DHT22;54618;52.018;5.576;2023-09-18T10:50:03;22.40;73.90
67820;DHT22;54618;52.018;5.576;2023-09-18T10:52:30;22.30;73.90
67820;DHT22;54618;52.018;5.576;2023-09-18T10:54:55;22.30;74.50
67820;DHT22;54618;52.018;5.576;2023-09-18T10:57:21;22.20;74.40
67820;DHT22;54618;52.018;5.576;2023-09-18T10:59:46;22.20;75.20
67820;DHT22;54618;52.018;5.576;2023-09-18T11:02:16;22.20;74.40
67820;DHT22;54618;52.018;5.576;2023-09-18T11:04:43;22.20;74.60
67820;DHT22;54618;52.018;5.576;2023-09-18T11:07:19;22.10;75.30
67820;DHT22;54618;52.018;5.576;2023-09-18T11:09:47;22.20;75.20
67820;DHT22;54618;52.018;5.576;2023-09-18T11:12:16;22.40;75.90
67820;DHT22;54618;52.018;5.576;2023-09-18T11:14:47;22.50;74.90
67820;DHT22;54618;52.018;5.576;2023-09-18T11:20:23;22.60;74.40
67820;DHT22;54618;52.018;5.576;2023-09-18T11:23:09;22.70;75.00
67820;DHT22;54618;52.018;5.576;2023-09-18T11:25:35;22.70;74.10
67820;DHT22;54618;52.018;5.576;2023-09-18T11:28:03;22.80;74.40
67820;DHT22;54618;52.018;5.576;2023-09-18T11:30:31;22.80;73.50
67820;DHT22;54618;52.018;5.576;2023-09-18T11:32:58;22.90;73.40
67820;DHT22;54618;52.018;5.576;2023-09-18T11:35:24;23.20;74.10
67820;DHT22;54618;52.018;5.576;2023-09-18T11:38:02;23.40;73.10
67820;DHT22;54618;52.018;5.576;2023-09-18T11:40:31;23.50;72.30
67820;DHT22;54618;52.018;5.576;2023-09-18T11:45:48;23.80;72.10
67820;DHT22;54618;52.018;5.576;2023-09-18T11:48:15;24.00;71.30
67820;DHT22;54618;52.018;5.576;2023-09-18T11:50:41;24.20;71.50
67820;DHT22;54618;52.018;5.576;2023-09-18T11:53:07;24.50;69.20
67820;DHT22;54618;52.018;5.576;2023-09-18T11:55:32;24.60;68.90
67820;DHT22;54618;52.018;5.576;2023-09-18T11:57:58;24.60;69.00
67820;DHT22;54618;52.018;5.576;2023-09-18T12:00:26;24.50;68.30
67820;DHT22;54618;52.018;5.576;2023-09-18T12:02:53;24.50;67.00
67820;DHT22;54618;52.018;5.576;2023-09-18T12:05:20;24.60;68.40
67820;DHT22;54618;52.018;5.576;2023-09-18T12:07:46;24.60;68.10
67820;DHT22;54618;52.018;5.576;2023-09-18T12:10:15;24.70;66.00
67820;DHT22;54618;52.018;5.576;2023-09-18T12:12:42;24.70;66.80
67820;DHT22;54618;52.018;5.576;2023-09-18T12:15:12;24.60;66.10
67820;DHT22;54618;52.018;5.576;2023-09-18T12:17:38;24.60;64.50
67820;DHT22;54618;52.018;5.576;2023-09-18T12:20:03;24.50;66.20
67820;DHT22;54618;52.018;5.576;2023-09-18T12:22:30;24.30;65.90
67820;DHT22;54618;52.018;5.576;2023-09-18T12:25:16;24.20;67.30
67820;DHT22;54618;52.018;5.576;2023-09-18T12:27:45;24.10;67.10
67820;DHT22;54618;52.018;5.576;2023-09-18T12:30:11;24.20;65.90
67820;DHT22;54618;52.018;5.576;2023-09-18T12:32:37;24.20;66.90
67820;DHT22;54618;52.018;5.576;2023-09-18T12:35:04;24.20;66.50
67820;DHT22;54618;52.018;5.576;2023-09-18T12:37:39;24.30;65.10
67820;DHT22;54618;52.018;5.576;2023-09-18T12:40:04;24.40;64.70
67820;DHT22;54618;52.018;5.576;2023-09-18T12:42:36;24.40;64.70
67820;DHT22;54618;52.018;5.576;2023-09-18T12:45:06;24.50;65.10
67820;DHT22;54618;52.018;5.576;2023-09-18T12:47:32;24.50;65.90
67820;DHT22;54618;52.018;5.576;2023-09-18T12:50:03;24.50;65.20
67820;DHT22;54618;52.018;5.576;2023-09-18T12:52:29;24.40;64.50
67820;DHT22;54618;52.018;5.576;2023-09-18T12:54:56;24.30;65.70
67820;DHT22;54618;52.018;5.576;2023-09-18T12:57:23;24.20;65.50
67820;DHT22;54618;52.018;5.576;2023-09-18T12:59:48;24.10;65.60
67820;DHT22;54618;52.018;5.576;2023-09-18T13:02:16;24.10;66.50
67820;DHT22;54618;52.018;5.576;2023-09-18T13:04:47;24.20;67.60
67820;DHT22;54618;52.018;5.576;2023-09-18T13:07:15;24.40;65.70
67820;DHT22;54618;52.018;5.576;2023-09-18T13:09:42;24.50;65.00
67820;DHT22;54618;52.018;5.576;2023-09-18T13:12:08;24.60;66.40
67820;DHT22;54618;52.018;5.576;2023-09-18T13:17:18;24.40;64.40
67820;DHT22;54618;52.018;5.576;2023-09-18T13:19:47;24.20;65.10
67820;DHT22;54618;52.018;5.576;2023-09-18T13:22:21;24.20;65.70
67820;DHT22;54618;52.018;5.576;2023-09-18T13:24:46;24.40;65.70
67820;DHT22;54618;52.018;5.576;2023-09-18T13:27:12;24.50;65.30
67820;DHT22;54618;52.018;5.576;2023-09-18T13:29:37;24.50;64.00
67820;DHT22;54618;52.018;5.576;2023-09-18T13:32:03;24.70;66.10
67820;DHT22;54618;52.018;5.576;2023-09-18T13:34:29;24.70;63.20
67820;DHT22;54618;52.018;5.576;2023-09-18T13:36:56;24.60;63.30
67820;DHT22;54618;52.018;5.576;2023-09-18T13:39:21;24.50;62.50
67820;DHT22;54618;52.018;5.576;2023-09-18T13:41:47;24.50;63.30
67820;DHT22;54618;52.018;5.576;2023-09-18T13:44:13;24.60;65.00
67820;DHT22;54618;52.018;5.576;2023-09-18T13:46:38;24.70;65.00
67820;DHT22;54618;52.018;5.576;2023-09-18T13:49:03;24.70;64.70
67820;DHT22;54618;52.018;5.576;2023-09-18T13:51:30;24.80;63.00
67820;DHT22;54618;52.018;5.576;2023-09-18T13:53:56;24.80;62.80
67820;DHT22;54618;52.018;5.576;2023-09-18T13:56:22;24.80;63.00
67820;DHT22;54618;52.018;5.576;2023-09-18T13:58:47;24.80;63.50
67820;DHT22;54618;52.018;5.576;2023-09-18T14:01:13;24.80;63.60
67820;DHT22;54618;52.018;5.576;2023-09-18T14:03:41;24.80;62.00
67820;DHT22;54618;52.018;5.576;2023-09-18T14:06:08;24.80;63.20
67820;DHT22;54618;52.018;5.576;2023-09-18T14:08:34;24.90;63.00
67820;DHT22;54618;52.018;5.576;2023-09-18T14:11:00;24.90;63.10
67820;DHT22;54618;52.018;5.576;2023-09-18T14:13:25;24.90;63.10
67820;DHT22;54618;52.018;5.576;2023-09-18T14:15:51;24.90;62.40
67820;DHT22;54618;52.018;5.576;2023-09-18T14:18:16;25.00;61.60
67820;DHT22;54618;52.018;5.576;2023-09-18T14:20:42;25.00;61.40
67820;DHT22;54618;52.018;5.576;2023-09-18T14:23:07;25.00;61.70
67820;DHT22;54618;52.018;5.576;2023-09-18T14:25:32;24.90;62.00
67820;DHT22;54618;52.018;5.576;2023-09-18T14:27:59;24.70;61.10
67820;DHT22;54618;52.018;5.576;2023-09-18T14:30:24;24.50;61.30
67820;DHT22;54618;52.018;5.576;2023-09-18T14:32:58;24.50;62.00
67820;DHT22;54618;52.018;5.576;2023-09-18T14:35:25;24.40;62.20
67820;DHT22;54618;52.018;5.576;2023-09-18T14:37:51;24.40;63.20
67820;DHT22;54618;52.018;5.576;2023-09-18T14:40:17;24.40;62.20
67820;DHT22;54618;52.018;5.576;2023-09-18T14:42:42;24.30;61.80
67820;DHT22;54618;52.018;5.576;2023-09-18T14:45:08;24.30;61.50
67820;DHT22;54618;52.018;5.576;2023-09-18T14:47:34;24.20;61.00
67820;DHT22;54618;52.018;5.576;2023-09-18T14:49:59;24.10;60.70
67820;DHT22;54618;52.018;5.576;2023-09-18T14:52:26;24.10;62.40
67820;DHT22;54618;52.018;5.576;2023-09-18T14:54:52;23.90;62.10
67820;DHT22;54618;52.018;5.576;2023-09-18T14:57:17;23.80;63.70
67820;DHT22;54618;52.018;5.576;2023-09-18T14:59:43;23.80;63.30
67820;DHT22;54618;52.018;5.576;2023-09-18T15:02:15;23.70;63.30
67820;DHT22;54618;52.018;5.576;2023-09-18T15:04:47;23.60;61.90
67820;DHT22;54618;52.018;5.576;2023-09-18T15:07:13;23.50;62.40
67820;DHT22;54618;52.018;5.576;2023-09-18T15:09:47;23.40;63.80
67820;DHT22;54618;52.018;5.576;2023-09-18T15:12:12;23.30;62.90
67820;DHT22;54618;52.018;5.576;2023-09-18T15:14:38;23.10;63.80
67820;DHT22;54618;52.018;5.576;2023-09-18T15:17:04;23.00;64.40
67820;DHT22;54618;52.018;5.576;2023-09-18T15:19:29;22.70;64.10
67820;DHT22;54618;52.018;5.576;2023-09-18T15:21:55;21.80;63.50
67820;DHT22;54618;52.018;5.576;2023-09-18T15:24:22;21.00;66.40
67820;DHT22;54618;52.018;5.576;2023-09-18T15:26:48;20.40;67.30
67820;DHT22;54618;52.018;5.576;2023-09-18T15:29:16;19.90;69.50
67820;DHT22;54618;52.018;5.576;2023-09-18T15:31:42;19.50;69.60
67820;DHT22;54618;52.018;5.576;2023-09-18T15:34:08;19.20;70.60
67820;DHT22;54618;52.018;5.576;2023-09-18T15:36:34;19.00;71.80
67820;DHT22;54618;52.018;5.576;2023-09-18T15:38:59;18.90;72.20